<?xml version="1.0" encoding="UTF-8" standalone="no" ?>
<gpx xmlns="http://www.topografix.com/GPX/1/1" xmlns:xsi="http://www.w3.org/2001/XMLSchema-instance" xsi:schemaLocation="http://www.topografix.com/GPX/1/1 http://www.topografix.com/GPX/1/1/gpx.xsd" version="1.1" creator="VisuGPX - https://www.visugpx.com">
  <metadata>
    <name>Tour de Saint-Maurice-de-Tavernole</name>
  </metadata>
  <wpt lat="45.47831" lon="-0.40295">
    <ele>63</ele>
    <name><![CDATA[Place de l'église ]]></name>
  </wpt>
  <wpt lat="45.4878" lon="-0.41322">
    <ele>34</ele>
    <name><![CDATA[Croisement en T]]></name>
  </wpt>
  <wpt lat="45.4886" lon="-0.41163">
    <ele>43</ele>
    <name><![CDATA[Chemin à gauche]]></name>
  </wpt>
  <wpt lat="45.4958" lon="-0.41837">
    <ele>29</ele>
    <name><![CDATA[Bifurcation]]></name>
  </wpt>
  <wpt lat="45.49717" lon="-0.41133">
    <ele>30</ele>
    <name><![CDATA[Rivière le Trèfle]]></name>
  </wpt>
  <wpt lat="45.50034" lon="-0.40866">
    <ele>35</ele>
    <name><![CDATA[Traversée de route]]></name>
  </wpt>
  <wpt lat="45.49921" lon="-0.40097">
    <ele>47</ele>
    <name><![CDATA[Traversée de route]]></name>
  </wpt>
  <wpt lat="45.4965" lon="-0.3943">
    <ele>32</ele>
    <name><![CDATA[Bifurcation sur chemin]]></name>
  </wpt>
  <wpt lat="45.49223" lon="-0.3905">
    <ele>43</ele>
    <name><![CDATA[Hameau les Écures ]]></name>
  </wpt>
  <wpt lat="45.47557" lon="-0.40051">
    <ele>63</ele>
    <name><![CDATA[Lieu-dit Messac]]></name>
  </wpt>
  <wpt lat="45.4699" lon="-0.40081">
    <ele>70</ele>
    <name><![CDATA[Bifurcation sur route]]></name>
  </wpt>
  <wpt lat="45.47844" lon="-0.40346">
    <ele>63</ele>
    <name><![CDATA[Place de l'église ]]></name>
  </wpt>
  <trk>
    <name><![CDATA[Tour de Saint-Maurice-de-Tavernole]]></name>
    <trkseg>
      <trkpt lat="45.47831" lon="-0.40295">
        <ele>63</ele>
        <time>2022-05-09T13:51:41+02:00</time>
      </trkpt>
      <trkpt lat="45.47836" lon="-0.40327">
        <ele>63</ele>
        <time>2022-05-09T13:55:05+02:00</time>
      </trkpt>
      <trkpt lat="45.47852" lon="-0.40351">
        <ele>62</ele>
        <time>2022-05-09T13:55:33+02:00</time>
      </trkpt>
      <trkpt lat="45.47874" lon="-0.40345">
        <ele>62</ele>
        <time>2022-05-09T13:55:54+02:00</time>
      </trkpt>
      <trkpt lat="45.47896" lon="-0.40334">
        <ele>62</ele>
        <time>2022-05-09T13:57:07+02:00</time>
      </trkpt>
      <trkpt lat="45.47919" lon="-0.40341">
        <ele>61</ele>
        <time>2022-05-09T13:57:34+02:00</time>
      </trkpt>
      <trkpt lat="45.47941" lon="-0.40349">
        <ele>61</ele>
        <time>2022-05-09T13:57:57+02:00</time>
      </trkpt>
      <trkpt lat="45.47963" lon="-0.40357">
        <ele>60</ele>
        <time>2022-05-09T13:58:17+02:00</time>
      </trkpt>
      <trkpt lat="45.47985" lon="-0.40366">
        <ele>60</ele>
        <time>2022-05-09T13:58:38+02:00</time>
      </trkpt>
      <trkpt lat="45.48007" lon="-0.40376">
        <ele>59</ele>
        <time>2022-05-09T13:58:58+02:00</time>
      </trkpt>
      <trkpt lat="45.48027" lon="-0.40392">
        <ele>59</ele>
        <time>2022-05-09T13:59:20+02:00</time>
      </trkpt>
      <trkpt lat="45.4805" lon="-0.40402">
        <ele>58</ele>
        <time>2022-05-09T13:59:45+02:00</time>
      </trkpt>
      <trkpt lat="45.48073" lon="-0.40405">
        <ele>57</ele>
        <time>2022-05-09T14:00:16+02:00</time>
      </trkpt>
      <trkpt lat="45.48088" lon="-0.4043">
        <ele>57</ele>
        <time>2022-05-09T14:00:36+02:00</time>
      </trkpt>
      <trkpt lat="45.48104" lon="-0.40454">
        <ele>57</ele>
        <time>2022-05-09T14:00:59+02:00</time>
      </trkpt>
      <trkpt lat="45.48121" lon="-0.40476">
        <ele>57</ele>
        <time>2022-05-09T14:01:18+02:00</time>
      </trkpt>
      <trkpt lat="45.48139" lon="-0.40499">
        <ele>57</ele>
        <time>2022-05-09T14:01:43+02:00</time>
      </trkpt>
      <trkpt lat="45.48154" lon="-0.40523">
        <ele>56</ele>
        <time>2022-05-09T14:02:02+02:00</time>
      </trkpt>
      <trkpt lat="45.48169" lon="-0.40548">
        <ele>55</ele>
        <time>2022-05-09T14:02:21+02:00</time>
      </trkpt>
      <trkpt lat="45.48185" lon="-0.40571">
        <ele>55</ele>
        <time>2022-05-09T14:02:40+02:00</time>
      </trkpt>
      <trkpt lat="45.48201" lon="-0.40596">
        <ele>54</ele>
        <time>2022-05-09T14:03:00+02:00</time>
      </trkpt>
      <trkpt lat="45.48204" lon="-0.40628">
        <ele>55</ele>
        <time>2022-05-09T14:03:28+02:00</time>
      </trkpt>
      <trkpt lat="45.48187" lon="-0.40651">
        <ele>55</ele>
        <time>2022-05-09T14:03:49+02:00</time>
      </trkpt>
      <trkpt lat="45.48171" lon="-0.40675">
        <ele>56</ele>
        <time>2022-05-09T14:04:10+02:00</time>
      </trkpt>
      <trkpt lat="45.48156" lon="-0.407">
        <ele>56</ele>
        <time>2022-05-09T14:04:29+02:00</time>
      </trkpt>
      <trkpt lat="45.48142" lon="-0.40726">
        <ele>55</ele>
        <time>2022-05-09T14:04:51+02:00</time>
      </trkpt>
      <trkpt lat="45.48128" lon="-0.40753">
        <ele>55</ele>
        <time>2022-05-09T14:05:45+02:00</time>
      </trkpt>
      <trkpt lat="45.48118" lon="-0.40781">
        <ele>53</ele>
        <time>2022-05-09T14:06:05+02:00</time>
      </trkpt>
      <trkpt lat="45.48103" lon="-0.40806">
        <ele>51</ele>
        <time>2022-05-09T14:06:29+02:00</time>
      </trkpt>
      <trkpt lat="45.48089" lon="-0.40832">
        <ele>48</ele>
        <time>2022-05-09T14:06:51+02:00</time>
      </trkpt>
      <trkpt lat="45.48074" lon="-0.40857">
        <ele>46</ele>
        <time>2022-05-09T14:07:10+02:00</time>
      </trkpt>
      <trkpt lat="45.48076" lon="-0.40889">
        <ele>44</ele>
        <time>2022-05-09T14:07:32+02:00</time>
      </trkpt>
      <trkpt lat="45.48096" lon="-0.40905">
        <ele>43</ele>
        <time>2022-05-09T14:07:52+02:00</time>
      </trkpt>
      <trkpt lat="45.48116" lon="-0.40922">
        <ele>43</ele>
        <time>2022-05-09T14:08:13+02:00</time>
      </trkpt>
      <trkpt lat="45.48137" lon="-0.40936">
        <ele>43</ele>
        <time>2022-05-09T14:08:33+02:00</time>
      </trkpt>
      <trkpt lat="45.48159" lon="-0.40945">
        <ele>43</ele>
        <time>2022-05-09T14:08:54+02:00</time>
      </trkpt>
      <trkpt lat="45.4818" lon="-0.4096">
        <ele>43</ele>
        <time>2022-05-09T14:09:13+02:00</time>
      </trkpt>
      <trkpt lat="45.48202" lon="-0.40975">
        <ele>43</ele>
        <time>2022-05-09T14:09:31+02:00</time>
      </trkpt>
      <trkpt lat="45.48222" lon="-0.4099">
        <ele>43</ele>
        <time>2022-05-09T14:09:50+02:00</time>
      </trkpt>
      <trkpt lat="45.48243" lon="-0.41006">
        <ele>43</ele>
        <time>2022-05-09T14:10:12+02:00</time>
      </trkpt>
      <trkpt lat="45.48264" lon="-0.41022">
        <ele>42</ele>
        <time>2022-05-09T14:10:32+02:00</time>
      </trkpt>
      <trkpt lat="45.48285" lon="-0.41034">
        <ele>42</ele>
        <time>2022-05-09T14:10:50+02:00</time>
      </trkpt>
      <trkpt lat="45.48306" lon="-0.41049">
        <ele>42</ele>
        <time>2022-05-09T14:11:09+02:00</time>
      </trkpt>
      <trkpt lat="45.48326" lon="-0.41063">
        <ele>42</ele>
        <time>2022-05-09T14:11:28+02:00</time>
      </trkpt>
      <trkpt lat="45.48347" lon="-0.41076">
        <ele>41</ele>
        <time>2022-05-09T14:11:46+02:00</time>
      </trkpt>
      <trkpt lat="45.48368" lon="-0.41092">
        <ele>41</ele>
        <time>2022-05-09T14:12:07+02:00</time>
      </trkpt>
      <trkpt lat="45.48388" lon="-0.4111">
        <ele>40</ele>
        <time>2022-05-09T14:12:25+02:00</time>
      </trkpt>
      <trkpt lat="45.4841" lon="-0.41117">
        <ele>40</ele>
        <time>2022-05-09T14:12:41+02:00</time>
      </trkpt>
      <trkpt lat="45.48432" lon="-0.41107">
        <ele>41</ele>
        <time>2022-05-09T14:13:04+02:00</time>
      </trkpt>
      <trkpt lat="45.48444" lon="-0.41079">
        <ele>43</ele>
        <time>2022-05-09T14:13:23+02:00</time>
      </trkpt>
      <trkpt lat="45.48466" lon="-0.41081">
        <ele>43</ele>
        <time>2022-05-09T14:13:44+02:00</time>
      </trkpt>
      <trkpt lat="45.4848" lon="-0.41107">
        <ele>42</ele>
        <time>2022-05-09T14:14:04+02:00</time>
      </trkpt>
      <trkpt lat="45.48502" lon="-0.41117">
        <ele>41</ele>
        <time>2022-05-09T14:14:23+02:00</time>
      </trkpt>
      <trkpt lat="45.48524" lon="-0.41125">
        <ele>41</ele>
        <time>2022-05-09T14:14:40+02:00</time>
      </trkpt>
      <trkpt lat="45.48543" lon="-0.41145">
        <ele>41</ele>
        <time>2022-05-09T14:14:59+02:00</time>
      </trkpt>
      <trkpt lat="45.48564" lon="-0.41157">
        <ele>40</ele>
        <time>2022-05-09T14:15:17+02:00</time>
      </trkpt>
      <trkpt lat="45.48584" lon="-0.41171">
        <ele>40</ele>
        <time>2022-05-09T14:15:35+02:00</time>
      </trkpt>
      <trkpt lat="45.48606" lon="-0.41182">
        <ele>40</ele>
        <time>2022-05-09T14:15:56+02:00</time>
      </trkpt>
      <trkpt lat="45.48626" lon="-0.412">
        <ele>39</ele>
        <time>2022-05-09T14:16:15+02:00</time>
      </trkpt>
      <trkpt lat="45.48647" lon="-0.41214">
        <ele>38</ele>
        <time>2022-05-09T14:16:35+02:00</time>
      </trkpt>
      <trkpt lat="45.48661" lon="-0.41243">
        <ele>37</ele>
        <time>2022-05-09T14:16:53+02:00</time>
      </trkpt>
      <trkpt lat="45.48688" lon="-0.41247">
        <ele>37</ele>
        <time>2022-05-09T14:17:11+02:00</time>
      </trkpt>
      <trkpt lat="45.48707" lon="-0.41264">
        <ele>37</ele>
        <time>2022-05-09T14:17:29+02:00</time>
      </trkpt>
      <trkpt lat="45.48727" lon="-0.4128">
        <ele>36</ele>
        <time>2022-05-09T14:17:48+02:00</time>
      </trkpt>
      <trkpt lat="45.48748" lon="-0.41296">
        <ele>36</ele>
        <time>2022-05-09T14:18:06+02:00</time>
      </trkpt>
      <trkpt lat="45.4878" lon="-0.41322">
        <ele>34</ele>
        <time>2022-05-09T14:18:30+02:00</time>
      </trkpt>
      <trkpt lat="45.48791" lon="-0.41305">
        <ele>35</ele>
        <time>2022-05-09T14:18:52+02:00</time>
      </trkpt>
      <trkpt lat="45.48806" lon="-0.41284">
        <ele>36</ele>
        <time>2022-05-09T14:19:12+02:00</time>
      </trkpt>
      <trkpt lat="45.48823" lon="-0.41244">
        <ele>38</ele>
        <time>2022-05-09T14:19:33+02:00</time>
      </trkpt>
      <trkpt lat="45.48834" lon="-0.41221">
        <ele>39</ele>
        <time>2022-05-09T14:19:55+02:00</time>
      </trkpt>
      <trkpt lat="45.48845" lon="-0.41198">
        <ele>41</ele>
        <time>2022-05-09T14:20:15+02:00</time>
      </trkpt>
      <trkpt lat="45.4886" lon="-0.41163">
        <ele>43</ele>
        <time>2022-05-09T14:20:48+02:00</time>
      </trkpt>
      <trkpt lat="45.48874" lon="-0.41162">
        <ele>42</ele>
        <time>2022-05-09T14:21:50+02:00</time>
      </trkpt>
      <trkpt lat="45.48891" lon="-0.41183">
        <ele>41</ele>
        <time>2022-05-09T14:22:09+02:00</time>
      </trkpt>
      <trkpt lat="45.4891" lon="-0.41205">
        <ele>40</ele>
        <time>2022-05-09T14:22:28+02:00</time>
      </trkpt>
      <trkpt lat="45.48927" lon="-0.41221">
        <ele>39</ele>
        <time>2022-05-09T14:22:47+02:00</time>
      </trkpt>
      <trkpt lat="45.48947" lon="-0.41241">
        <ele>39</ele>
        <time>2022-05-09T14:23:07+02:00</time>
      </trkpt>
      <trkpt lat="45.48968" lon="-0.41255">
        <ele>39</ele>
        <time>2022-05-09T14:23:26+02:00</time>
      </trkpt>
      <trkpt lat="45.48988" lon="-0.41273">
        <ele>39</ele>
        <time>2022-05-09T14:23:45+02:00</time>
      </trkpt>
      <trkpt lat="45.4901" lon="-0.41285">
        <ele>39</ele>
        <time>2022-05-09T14:24:00+02:00</time>
      </trkpt>
      <trkpt lat="45.4903" lon="-0.413">
        <ele>38</ele>
        <time>2022-05-09T14:24:17+02:00</time>
      </trkpt>
      <trkpt lat="45.49051" lon="-0.41313">
        <ele>38</ele>
        <time>2022-05-09T14:24:34+02:00</time>
      </trkpt>
      <trkpt lat="45.49071" lon="-0.41332">
        <ele>38</ele>
        <time>2022-05-09T14:24:53+02:00</time>
      </trkpt>
      <trkpt lat="45.49091" lon="-0.41348">
        <ele>37</ele>
        <time>2022-05-09T14:25:11+02:00</time>
      </trkpt>
      <trkpt lat="45.49111" lon="-0.41363">
        <ele>37</ele>
        <time>2022-05-09T14:25:30+02:00</time>
      </trkpt>
      <trkpt lat="45.49131" lon="-0.41379">
        <ele>36</ele>
        <time>2022-05-09T14:25:48+02:00</time>
      </trkpt>
      <trkpt lat="45.49151" lon="-0.41395">
        <ele>36</ele>
        <time>2022-05-09T14:26:05+02:00</time>
      </trkpt>
      <trkpt lat="45.49172" lon="-0.41411">
        <ele>35</ele>
        <time>2022-05-09T14:26:24+02:00</time>
      </trkpt>
      <trkpt lat="45.49192" lon="-0.41425">
        <ele>35</ele>
        <time>2022-05-09T14:26:43+02:00</time>
      </trkpt>
      <trkpt lat="45.49212" lon="-0.41441">
        <ele>36</ele>
        <time>2022-05-09T14:27:01+02:00</time>
      </trkpt>
      <trkpt lat="45.49232" lon="-0.41458">
        <ele>36</ele>
        <time>2022-05-09T14:27:18+02:00</time>
      </trkpt>
      <trkpt lat="45.49253" lon="-0.41473">
        <ele>36</ele>
        <time>2022-05-09T14:27:37+02:00</time>
      </trkpt>
      <trkpt lat="45.49273" lon="-0.4149">
        <ele>36</ele>
        <time>2022-05-09T14:27:56+02:00</time>
      </trkpt>
      <trkpt lat="45.49293" lon="-0.41504">
        <ele>36</ele>
        <time>2022-05-09T14:28:14+02:00</time>
      </trkpt>
      <trkpt lat="45.4931" lon="-0.41527">
        <ele>36</ele>
        <time>2022-05-09T14:28:33+02:00</time>
      </trkpt>
      <trkpt lat="45.49328" lon="-0.41547">
        <ele>36</ele>
        <time>2022-05-09T14:28:59+02:00</time>
      </trkpt>
      <trkpt lat="45.49347" lon="-0.41568">
        <ele>37</ele>
        <time>2022-05-09T14:29:18+02:00</time>
      </trkpt>
      <trkpt lat="45.49367" lon="-0.41585">
        <ele>37</ele>
        <time>2022-05-09T14:29:37+02:00</time>
      </trkpt>
      <trkpt lat="45.49386" lon="-0.41605">
        <ele>36</ele>
        <time>2022-05-09T14:29:56+02:00</time>
      </trkpt>
      <trkpt lat="45.49402" lon="-0.41628">
        <ele>36</ele>
        <time>2022-05-09T14:30:14+02:00</time>
      </trkpt>
      <trkpt lat="45.49419" lon="-0.41649">
        <ele>36</ele>
        <time>2022-05-09T14:30:34+02:00</time>
      </trkpt>
      <trkpt lat="45.49438" lon="-0.41669">
        <ele>35</ele>
        <time>2022-05-09T14:30:52+02:00</time>
      </trkpt>
      <trkpt lat="45.49455" lon="-0.41691">
        <ele>34</ele>
        <time>2022-05-09T14:31:12+02:00</time>
      </trkpt>
      <trkpt lat="45.49473" lon="-0.41712">
        <ele>33</ele>
        <time>2022-05-09T14:31:30+02:00</time>
      </trkpt>
      <trkpt lat="45.4949" lon="-0.41735">
        <ele>32</ele>
        <time>2022-05-09T14:31:50+02:00</time>
      </trkpt>
      <trkpt lat="45.49508" lon="-0.41757">
        <ele>31</ele>
        <time>2022-05-09T14:32:09+02:00</time>
      </trkpt>
      <trkpt lat="45.49526" lon="-0.41777">
        <ele>30</ele>
        <time>2022-05-09T14:32:28+02:00</time>
      </trkpt>
      <trkpt lat="45.49544" lon="-0.41798">
        <ele>29</ele>
        <time>2022-05-09T14:32:48+02:00</time>
      </trkpt>
      <trkpt lat="45.49563" lon="-0.41816">
        <ele>29</ele>
        <time>2022-05-09T14:33:03+02:00</time>
      </trkpt>
      <trkpt lat="45.4958" lon="-0.41837">
        <ele>29</ele>
        <time>2022-05-09T14:33:22+02:00</time>
      </trkpt>
      <trkpt lat="45.49599" lon="-0.41818">
        <ele>29</ele>
        <time>2022-05-09T14:33:48+02:00</time>
      </trkpt>
      <trkpt lat="45.49613" lon="-0.41792">
        <ele>29</ele>
        <time>2022-05-09T14:34:06+02:00</time>
      </trkpt>
      <trkpt lat="45.49624" lon="-0.41764">
        <ele>29</ele>
        <time>2022-05-09T14:34:24+02:00</time>
      </trkpt>
      <trkpt lat="45.49638" lon="-0.41735">
        <ele>30</ele>
        <time>2022-05-09T14:34:42+02:00</time>
      </trkpt>
      <trkpt lat="45.49649" lon="-0.41706">
        <ele>30</ele>
        <time>2022-05-09T14:35:01+02:00</time>
      </trkpt>
      <trkpt lat="45.49659" lon="-0.41677">
        <ele>29</ele>
        <time>2022-05-09T14:35:21+02:00</time>
      </trkpt>
      <trkpt lat="45.49669" lon="-0.41646">
        <ele>29</ele>
        <time>2022-05-09T14:35:39+02:00</time>
      </trkpt>
      <trkpt lat="45.49682" lon="-0.41619">
        <ele>29</ele>
        <time>2022-05-09T14:35:57+02:00</time>
      </trkpt>
      <trkpt lat="45.49695" lon="-0.41593">
        <ele>29</ele>
        <time>2022-05-09T14:36:15+02:00</time>
      </trkpt>
      <trkpt lat="45.49708" lon="-0.41566">
        <ele>29</ele>
        <time>2022-05-09T14:36:31+02:00</time>
      </trkpt>
      <trkpt lat="45.49717" lon="-0.41534">
        <ele>30</ele>
        <time>2022-05-09T14:36:52+02:00</time>
      </trkpt>
      <trkpt lat="45.49723" lon="-0.41501">
        <ele>30</ele>
        <time>2022-05-09T14:37:11+02:00</time>
      </trkpt>
      <trkpt lat="45.4973" lon="-0.41469">
        <ele>30</ele>
        <time>2022-05-09T14:37:28+02:00</time>
      </trkpt>
      <trkpt lat="45.49722" lon="-0.41438">
        <ele>30</ele>
        <time>2022-05-09T14:37:46+02:00</time>
      </trkpt>
      <trkpt lat="45.49711" lon="-0.41411">
        <ele>30</ele>
        <time>2022-05-09T14:38:05+02:00</time>
      </trkpt>
      <trkpt lat="45.497" lon="-0.4138">
        <ele>30</ele>
        <time>2022-05-09T14:38:23+02:00</time>
      </trkpt>
      <trkpt lat="45.49688" lon="-0.41351">
        <ele>29</ele>
        <time>2022-05-09T14:38:42+02:00</time>
      </trkpt>
      <trkpt lat="45.4967" lon="-0.4133">
        <ele>29</ele>
        <time>2022-05-09T14:39:01+02:00</time>
      </trkpt>
      <trkpt lat="45.49649" lon="-0.41315">
        <ele>29</ele>
        <time>2022-05-09T14:39:18+02:00</time>
      </trkpt>
      <trkpt lat="45.49629" lon="-0.413">
        <ele>29</ele>
        <time>2022-05-09T14:39:36+02:00</time>
      </trkpt>
      <trkpt lat="45.49627" lon="-0.41267">
        <ele>30</ele>
        <time>2022-05-09T14:40:20+02:00</time>
      </trkpt>
      <trkpt lat="45.49639" lon="-0.41239">
        <ele>30</ele>
        <time>2022-05-09T14:40:41+02:00</time>
      </trkpt>
      <trkpt lat="45.49653" lon="-0.41213">
        <ele>30</ele>
        <time>2022-05-09T14:41:03+02:00</time>
      </trkpt>
      <trkpt lat="45.49667" lon="-0.41188">
        <ele>31</ele>
        <time>2022-05-09T14:41:24+02:00</time>
      </trkpt>
      <trkpt lat="45.49677" lon="-0.41159">
        <ele>31</ele>
        <time>2022-05-09T14:41:42+02:00</time>
      </trkpt>
      <trkpt lat="45.49693" lon="-0.41136">
        <ele>30</ele>
        <time>2022-05-09T14:42:01+02:00</time>
      </trkpt>
      <trkpt lat="45.49717" lon="-0.41133">
        <ele>30</ele>
        <time>2022-05-09T14:43:27+02:00</time>
      </trkpt>
      <trkpt lat="45.49739" lon="-0.41123">
        <ele>30</ele>
        <time>2022-05-09T14:45:27+02:00</time>
      </trkpt>
      <trkpt lat="45.49756" lon="-0.41102">
        <ele>29</ele>
        <time>2022-05-09T14:46:23+02:00</time>
      </trkpt>
      <trkpt lat="45.49778" lon="-0.41089">
        <ele>28</ele>
        <time>2022-05-09T14:46:53+02:00</time>
      </trkpt>
      <trkpt lat="45.49798" lon="-0.41071">
        <ele>28</ele>
        <time>2022-05-09T14:47:14+02:00</time>
      </trkpt>
      <trkpt lat="45.49813" lon="-0.41046">
        <ele>28</ele>
        <time>2022-05-09T14:47:40+02:00</time>
      </trkpt>
      <trkpt lat="45.49832" lon="-0.41028">
        <ele>28</ele>
        <time>2022-05-09T14:47:59+02:00</time>
      </trkpt>
      <trkpt lat="45.49851" lon="-0.41008">
        <ele>29</ele>
        <time>2022-05-09T14:48:12+02:00</time>
      </trkpt>
      <trkpt lat="45.49873" lon="-0.40994">
        <ele>30</ele>
        <time>2022-05-09T14:48:24+02:00</time>
      </trkpt>
      <trkpt lat="45.49892" lon="-0.40975">
        <ele>31</ele>
        <time>2022-05-09T14:48:40+02:00</time>
      </trkpt>
      <trkpt lat="45.49911" lon="-0.40957">
        <ele>31</ele>
        <time>2022-05-09T14:48:54+02:00</time>
      </trkpt>
      <trkpt lat="45.49931" lon="-0.40943">
        <ele>32</ele>
        <time>2022-05-09T14:49:10+02:00</time>
      </trkpt>
      <trkpt lat="45.49952" lon="-0.40931">
        <ele>33</ele>
        <time>2022-05-09T14:49:27+02:00</time>
      </trkpt>
      <trkpt lat="45.49973" lon="-0.40914">
        <ele>33</ele>
        <time>2022-05-09T14:49:43+02:00</time>
      </trkpt>
      <trkpt lat="45.49993" lon="-0.40894">
        <ele>34</ele>
        <time>2022-05-09T14:50:04+02:00</time>
      </trkpt>
      <trkpt lat="45.50012" lon="-0.40878">
        <ele>34</ele>
        <time>2022-05-09T14:50:21+02:00</time>
      </trkpt>
      <trkpt lat="45.50034" lon="-0.40866">
        <ele>35</ele>
        <time>2022-05-09T14:50:38+02:00</time>
      </trkpt>
      <trkpt lat="45.50054" lon="-0.4085">
        <ele>36</ele>
        <time>2022-05-09T14:50:55+02:00</time>
      </trkpt>
      <trkpt lat="45.50069" lon="-0.40826">
        <ele>37</ele>
        <time>2022-05-09T14:51:18+02:00</time>
      </trkpt>
      <trkpt lat="45.50086" lon="-0.40803">
        <ele>38</ele>
        <time>2022-05-09T14:51:41+02:00</time>
      </trkpt>
      <trkpt lat="45.50106" lon="-0.40785">
        <ele>39</ele>
        <time>2022-05-09T14:52:00+02:00</time>
      </trkpt>
      <trkpt lat="45.50127" lon="-0.40774">
        <ele>40</ele>
        <time>2022-05-09T14:53:28+02:00</time>
      </trkpt>
      <trkpt lat="45.50146" lon="-0.40754">
        <ele>41</ele>
        <time>2022-05-09T14:53:46+02:00</time>
      </trkpt>
      <trkpt lat="45.50165" lon="-0.40736">
        <ele>42</ele>
        <time>2022-05-09T14:57:25+02:00</time>
      </trkpt>
      <trkpt lat="45.50184" lon="-0.40716">
        <ele>43</ele>
        <time>2022-05-09T14:57:49+02:00</time>
      </trkpt>
      <trkpt lat="45.502" lon="-0.40693">
        <ele>43</ele>
        <time>2022-05-09T14:58:11+02:00</time>
      </trkpt>
      <trkpt lat="45.50218" lon="-0.40672">
        <ele>44</ele>
        <time>2022-05-09T14:58:32+02:00</time>
      </trkpt>
      <trkpt lat="45.50191" lon="-0.40622">
        <ele>46</ele>
        <time>2022-05-09T14:59:14+02:00</time>
      </trkpt>
      <trkpt lat="45.50173" lon="-0.40601">
        <ele>46</ele>
        <time>2022-05-09T14:59:34+02:00</time>
      </trkpt>
      <trkpt lat="45.50156" lon="-0.40579">
        <ele>47</ele>
        <time>2022-05-09T14:59:51+02:00</time>
      </trkpt>
      <trkpt lat="45.50142" lon="-0.40554">
        <ele>48</ele>
        <time>2022-05-09T15:00:10+02:00</time>
      </trkpt>
      <trkpt lat="45.50124" lon="-0.40533">
        <ele>48</ele>
        <time>2022-05-09T15:00:28+02:00</time>
      </trkpt>
      <trkpt lat="45.50113" lon="-0.40505">
        <ele>49</ele>
        <time>2022-05-09T15:00:46+02:00</time>
      </trkpt>
      <trkpt lat="45.50102" lon="-0.40477">
        <ele>49</ele>
        <time>2022-05-09T15:01:22+02:00</time>
      </trkpt>
      <trkpt lat="45.50088" lon="-0.40449">
        <ele>50</ele>
        <time>2022-05-09T15:01:50+02:00</time>
      </trkpt>
      <trkpt lat="45.50072" lon="-0.40427">
        <ele>49</ele>
        <time>2022-05-09T15:02:08+02:00</time>
      </trkpt>
      <trkpt lat="45.50061" lon="-0.40398">
        <ele>49</ele>
        <time>2022-05-09T15:02:32+02:00</time>
      </trkpt>
      <trkpt lat="45.50048" lon="-0.4037">
        <ele>49</ele>
        <time>2022-05-09T15:02:51+02:00</time>
      </trkpt>
      <trkpt lat="45.50033" lon="-0.40344">
        <ele>49</ele>
        <time>2022-05-09T15:03:09+02:00</time>
      </trkpt>
      <trkpt lat="45.5002" lon="-0.40318">
        <ele>49</ele>
        <time>2022-05-09T15:03:27+02:00</time>
      </trkpt>
      <trkpt lat="45.50005" lon="-0.40293">
        <ele>49</ele>
        <time>2022-05-09T15:03:44+02:00</time>
      </trkpt>
      <trkpt lat="45.4999" lon="-0.40267">
        <ele>48</ele>
        <time>2022-05-09T15:04:03+02:00</time>
      </trkpt>
      <trkpt lat="45.49977" lon="-0.4024">
        <ele>48</ele>
        <time>2022-05-09T15:04:20+02:00</time>
      </trkpt>
      <trkpt lat="45.49964" lon="-0.40213">
        <ele>48</ele>
        <time>2022-05-09T15:04:37+02:00</time>
      </trkpt>
      <trkpt lat="45.49951" lon="-0.40185">
        <ele>48</ele>
        <time>2022-05-09T15:04:54+02:00</time>
      </trkpt>
      <trkpt lat="45.4994" lon="-0.40157">
        <ele>48</ele>
        <time>2022-05-09T15:05:11+02:00</time>
      </trkpt>
      <trkpt lat="45.49929" lon="-0.40128">
        <ele>48</ele>
        <time>2022-05-09T15:05:36+02:00</time>
      </trkpt>
      <trkpt lat="45.49921" lon="-0.40097">
        <ele>47</ele>
        <time>2022-05-09T15:05:53+02:00</time>
      </trkpt>
      <trkpt lat="45.49908" lon="-0.40068">
        <ele>47</ele>
        <time>2022-05-09T15:06:12+02:00</time>
      </trkpt>
      <trkpt lat="45.49894" lon="-0.40043">
        <ele>47</ele>
        <time>2022-05-09T15:06:30+02:00</time>
      </trkpt>
      <trkpt lat="45.49881" lon="-0.40017">
        <ele>48</ele>
        <time>2022-05-09T15:06:47+02:00</time>
      </trkpt>
      <trkpt lat="45.49866" lon="-0.39991">
        <ele>48</ele>
        <time>2022-05-09T15:07:05+02:00</time>
      </trkpt>
      <trkpt lat="45.4985" lon="-0.39968">
        <ele>49</ele>
        <time>2022-05-09T15:07:22+02:00</time>
      </trkpt>
      <trkpt lat="45.49834" lon="-0.39946">
        <ele>50</ele>
        <time>2022-05-09T15:07:41+02:00</time>
      </trkpt>
      <trkpt lat="45.49824" lon="-0.39916">
        <ele>50</ele>
        <time>2022-05-09T15:08:01+02:00</time>
      </trkpt>
      <trkpt lat="45.4981" lon="-0.3989">
        <ele>49</ele>
        <time>2022-05-09T15:08:19+02:00</time>
      </trkpt>
      <trkpt lat="45.49795" lon="-0.39862">
        <ele>49</ele>
        <time>2022-05-09T15:08:36+02:00</time>
      </trkpt>
      <trkpt lat="45.49785" lon="-0.39833">
        <ele>48</ele>
        <time>2022-05-09T15:08:53+02:00</time>
      </trkpt>
      <trkpt lat="45.49773" lon="-0.39805">
        <ele>47</ele>
        <time>2022-05-09T15:09:12+02:00</time>
      </trkpt>
      <trkpt lat="45.49775" lon="-0.39773">
        <ele>46</ele>
        <time>2022-05-09T15:09:32+02:00</time>
      </trkpt>
      <trkpt lat="45.49773" lon="-0.3974">
        <ele>45</ele>
        <time>2022-05-09T15:09:50+02:00</time>
      </trkpt>
      <trkpt lat="45.49764" lon="-0.39709">
        <ele>44</ele>
        <time>2022-05-09T15:10:11+02:00</time>
      </trkpt>
      <trkpt lat="45.4976" lon="-0.39676">
        <ele>43</ele>
        <time>2022-05-09T15:10:32+02:00</time>
      </trkpt>
      <trkpt lat="45.49747" lon="-0.39648">
        <ele>40</ele>
        <time>2022-05-09T15:11:00+02:00</time>
      </trkpt>
      <trkpt lat="45.49733" lon="-0.39623">
        <ele>38</ele>
        <time>2022-05-09T15:11:19+02:00</time>
      </trkpt>
      <trkpt lat="45.49719" lon="-0.39595">
        <ele>35</ele>
        <time>2022-05-09T15:11:37+02:00</time>
      </trkpt>
      <trkpt lat="45.497" lon="-0.39575">
        <ele>34</ele>
        <time>2022-05-09T15:11:55+02:00</time>
      </trkpt>
      <trkpt lat="45.49683" lon="-0.39552">
        <ele>34</ele>
        <time>2022-05-09T15:12:13+02:00</time>
      </trkpt>
      <trkpt lat="45.49673" lon="-0.39522">
        <ele>33</ele>
        <time>2022-05-09T15:12:32+02:00</time>
      </trkpt>
      <trkpt lat="45.49665" lon="-0.39492">
        <ele>33</ele>
        <time>2022-05-09T15:12:50+02:00</time>
      </trkpt>
      <trkpt lat="45.49658" lon="-0.3946">
        <ele>33</ele>
        <time>2022-05-09T15:13:08+02:00</time>
      </trkpt>
      <trkpt lat="45.4965" lon="-0.3943">
        <ele>32</ele>
        <time>2022-05-09T15:13:26+02:00</time>
      </trkpt>
      <trkpt lat="45.49627" lon="-0.39437">
        <ele>32</ele>
        <time>2022-05-09T15:13:45+02:00</time>
      </trkpt>
      <trkpt lat="45.49604" lon="-0.39447">
        <ele>33</ele>
        <time>2022-05-09T15:14:05+02:00</time>
      </trkpt>
      <trkpt lat="45.49581" lon="-0.39453">
        <ele>33</ele>
        <time>2022-05-09T15:14:24+02:00</time>
      </trkpt>
      <trkpt lat="45.49563" lon="-0.39472">
        <ele>32</ele>
        <time>2022-05-09T15:14:42+02:00</time>
      </trkpt>
      <trkpt lat="45.49542" lon="-0.39487">
        <ele>32</ele>
        <time>2022-05-09T15:15:03+02:00</time>
      </trkpt>
      <trkpt lat="45.49505" lon="-0.39524">
        <ele>32</ele>
        <time>2022-05-09T15:15:42+02:00</time>
      </trkpt>
      <trkpt lat="45.49491" lon="-0.3955">
        <ele>32</ele>
        <time>2022-05-09T15:16:01+02:00</time>
      </trkpt>
      <trkpt lat="45.49478" lon="-0.39576">
        <ele>33</ele>
        <time>2022-05-09T15:16:19+02:00</time>
      </trkpt>
      <trkpt lat="45.49463" lon="-0.39602">
        <ele>33</ele>
        <time>2022-05-09T15:16:39+02:00</time>
      </trkpt>
      <trkpt lat="45.4945" lon="-0.39629">
        <ele>34</ele>
        <time>2022-05-09T15:16:57+02:00</time>
      </trkpt>
      <trkpt lat="45.4943" lon="-0.39614">
        <ele>34</ele>
        <time>2022-05-09T15:17:22+02:00</time>
      </trkpt>
      <trkpt lat="45.49413" lon="-0.39591">
        <ele>35</ele>
        <time>2022-05-09T15:17:42+02:00</time>
      </trkpt>
      <trkpt lat="45.49399" lon="-0.39566">
        <ele>35</ele>
        <time>2022-05-09T15:18:02+02:00</time>
      </trkpt>
      <trkpt lat="45.49384" lon="-0.39541">
        <ele>36</ele>
        <time>2022-05-09T15:18:33+02:00</time>
      </trkpt>
      <trkpt lat="45.49368" lon="-0.39517">
        <ele>36</ele>
        <time>2022-05-09T15:18:53+02:00</time>
      </trkpt>
      <trkpt lat="45.49355" lon="-0.39491">
        <ele>37</ele>
        <time>2022-05-09T15:19:12+02:00</time>
      </trkpt>
      <trkpt lat="45.49341" lon="-0.39466">
        <ele>38</ele>
        <time>2022-05-09T15:19:31+02:00</time>
      </trkpt>
      <trkpt lat="45.49326" lon="-0.3944">
        <ele>38</ele>
        <time>2022-05-09T15:19:50+02:00</time>
      </trkpt>
      <trkpt lat="45.49312" lon="-0.39414">
        <ele>39</ele>
        <time>2022-05-09T15:20:09+02:00</time>
      </trkpt>
      <trkpt lat="45.49298" lon="-0.39386">
        <ele>39</ele>
        <time>2022-05-09T15:20:28+02:00</time>
      </trkpt>
      <trkpt lat="45.49284" lon="-0.3936">
        <ele>39</ele>
        <time>2022-05-09T15:20:48+02:00</time>
      </trkpt>
      <trkpt lat="45.4927" lon="-0.39333">
        <ele>40</ele>
        <time>2022-05-09T15:21:09+02:00</time>
      </trkpt>
      <trkpt lat="45.4926" lon="-0.39302">
        <ele>40</ele>
        <time>2022-05-09T15:21:29+02:00</time>
      </trkpt>
      <trkpt lat="45.49255" lon="-0.39271">
        <ele>41</ele>
        <time>2022-05-09T15:21:48+02:00</time>
      </trkpt>
      <trkpt lat="45.4925" lon="-0.39239">
        <ele>42</ele>
        <time>2022-05-09T15:22:07+02:00</time>
      </trkpt>
      <trkpt lat="45.49245" lon="-0.39207">
        <ele>43</ele>
        <time>2022-05-09T15:22:30+02:00</time>
      </trkpt>
      <trkpt lat="45.49238" lon="-0.39176">
        <ele>43</ele>
        <time>2022-05-09T15:22:48+02:00</time>
      </trkpt>
      <trkpt lat="45.49235" lon="-0.39143">
        <ele>44</ele>
        <time>2022-05-09T15:23:07+02:00</time>
      </trkpt>
      <trkpt lat="45.49238" lon="-0.39111">
        <ele>44</ele>
        <time>2022-05-09T15:23:24+02:00</time>
      </trkpt>
      <trkpt lat="45.49223" lon="-0.3905">
        <ele>43</ele>
        <time>2022-05-09T15:24:00+02:00</time>
      </trkpt>
      <trkpt lat="45.492" lon="-0.39051">
        <ele>43</ele>
        <time>2022-05-09T15:24:47+02:00</time>
      </trkpt>
      <trkpt lat="45.49183" lon="-0.39074">
        <ele>42</ele>
        <time>2022-05-09T15:25:06+02:00</time>
      </trkpt>
      <trkpt lat="45.49162" lon="-0.39088">
        <ele>42</ele>
        <time>2022-05-09T15:25:25+02:00</time>
      </trkpt>
      <trkpt lat="45.49142" lon="-0.39105">
        <ele>40</ele>
        <time>2022-05-09T15:25:42+02:00</time>
      </trkpt>
      <trkpt lat="45.4912" lon="-0.39115">
        <ele>39</ele>
        <time>2022-05-09T15:26:00+02:00</time>
      </trkpt>
      <trkpt lat="45.49097" lon="-0.39111">
        <ele>37</ele>
        <time>2022-05-09T15:26:19+02:00</time>
      </trkpt>
      <trkpt lat="45.49078" lon="-0.3909">
        <ele>37</ele>
        <time>2022-05-09T15:26:38+02:00</time>
      </trkpt>
      <trkpt lat="45.49061" lon="-0.3907">
        <ele>37</ele>
        <time>2022-05-09T15:26:56+02:00</time>
      </trkpt>
      <trkpt lat="45.49045" lon="-0.39046">
        <ele>36</ele>
        <time>2022-05-09T15:27:14+02:00</time>
      </trkpt>
      <trkpt lat="45.49029" lon="-0.39022">
        <ele>35</ele>
        <time>2022-05-09T15:27:32+02:00</time>
      </trkpt>
      <trkpt lat="45.49012" lon="-0.39001">
        <ele>35</ele>
        <time>2022-05-09T15:27:52+02:00</time>
      </trkpt>
      <trkpt lat="45.48992" lon="-0.38986">
        <ele>34</ele>
        <time>2022-05-09T15:28:09+02:00</time>
      </trkpt>
      <trkpt lat="45.4897" lon="-0.38997">
        <ele>34</ele>
        <time>2022-05-09T15:28:28+02:00</time>
      </trkpt>
      <trkpt lat="45.48949" lon="-0.39012">
        <ele>34</ele>
        <time>2022-05-09T15:28:47+02:00</time>
      </trkpt>
      <trkpt lat="45.4893" lon="-0.39032">
        <ele>34</ele>
        <time>2022-05-09T15:29:05+02:00</time>
      </trkpt>
      <trkpt lat="45.48911" lon="-0.39051">
        <ele>35</ele>
        <time>2022-05-09T15:29:25+02:00</time>
      </trkpt>
      <trkpt lat="45.48892" lon="-0.39068">
        <ele>35</ele>
        <time>2022-05-09T15:29:44+02:00</time>
      </trkpt>
      <trkpt lat="45.48873" lon="-0.39088">
        <ele>35</ele>
        <time>2022-05-09T15:30:01+02:00</time>
      </trkpt>
      <trkpt lat="45.48859" lon="-0.39113">
        <ele>34</ele>
        <time>2022-05-09T15:30:19+02:00</time>
      </trkpt>
      <trkpt lat="45.48841" lon="-0.39133">
        <ele>34</ele>
        <time>2022-05-09T15:30:37+02:00</time>
      </trkpt>
      <trkpt lat="45.48822" lon="-0.39153">
        <ele>34</ele>
        <time>2022-05-09T15:30:51+02:00</time>
      </trkpt>
      <trkpt lat="45.48803" lon="-0.39171">
        <ele>34</ele>
        <time>2022-05-09T15:31:09+02:00</time>
      </trkpt>
      <trkpt lat="45.48781" lon="-0.39179">
        <ele>35</ele>
        <time>2022-05-09T15:31:29+02:00</time>
      </trkpt>
      <trkpt lat="45.48761" lon="-0.39198">
        <ele>35</ele>
        <time>2022-05-09T15:31:53+02:00</time>
      </trkpt>
      <trkpt lat="45.48742" lon="-0.39216">
        <ele>35</ele>
        <time>2022-05-09T15:32:11+02:00</time>
      </trkpt>
      <trkpt lat="45.48723" lon="-0.39235">
        <ele>35</ele>
        <time>2022-05-09T15:32:31+02:00</time>
      </trkpt>
      <trkpt lat="45.48704" lon="-0.39252">
        <ele>35</ele>
        <time>2022-05-09T15:32:48+02:00</time>
      </trkpt>
      <trkpt lat="45.48685" lon="-0.3927">
        <ele>35</ele>
        <time>2022-05-09T15:33:07+02:00</time>
      </trkpt>
      <trkpt lat="45.48665" lon="-0.39287">
        <ele>35</ele>
        <time>2022-05-09T15:33:25+02:00</time>
      </trkpt>
      <trkpt lat="45.48645" lon="-0.39304">
        <ele>36</ele>
        <time>2022-05-09T15:33:42+02:00</time>
      </trkpt>
      <trkpt lat="45.48625" lon="-0.39321">
        <ele>37</ele>
        <time>2022-05-09T15:34:01+02:00</time>
      </trkpt>
      <trkpt lat="45.48605" lon="-0.39337">
        <ele>38</ele>
        <time>2022-05-09T15:34:19+02:00</time>
      </trkpt>
      <trkpt lat="45.48586" lon="-0.39354">
        <ele>39</ele>
        <time>2022-05-09T15:34:37+02:00</time>
      </trkpt>
      <trkpt lat="45.48567" lon="-0.39371">
        <ele>40</ele>
        <time>2022-05-09T15:34:55+02:00</time>
      </trkpt>
      <trkpt lat="45.48548" lon="-0.39391">
        <ele>40</ele>
        <time>2022-05-09T15:35:14+02:00</time>
      </trkpt>
      <trkpt lat="45.48528" lon="-0.39409">
        <ele>41</ele>
        <time>2022-05-09T15:35:32+02:00</time>
      </trkpt>
      <trkpt lat="45.48508" lon="-0.39427">
        <ele>42</ele>
        <time>2022-05-09T15:35:51+02:00</time>
      </trkpt>
      <trkpt lat="45.4849" lon="-0.39446">
        <ele>42</ele>
        <time>2022-05-09T15:36:09+02:00</time>
      </trkpt>
      <trkpt lat="45.48469" lon="-0.39462">
        <ele>43</ele>
        <time>2022-05-09T15:36:27+02:00</time>
      </trkpt>
      <trkpt lat="45.48448" lon="-0.39477">
        <ele>44</ele>
        <time>2022-05-09T15:36:46+02:00</time>
      </trkpt>
      <trkpt lat="45.48427" lon="-0.39491">
        <ele>46</ele>
        <time>2022-05-09T15:37:05+02:00</time>
      </trkpt>
      <trkpt lat="45.48406" lon="-0.39503">
        <ele>47</ele>
        <time>2022-05-09T15:37:23+02:00</time>
      </trkpt>
      <trkpt lat="45.48384" lon="-0.39516">
        <ele>47</ele>
        <time>2022-05-09T15:37:41+02:00</time>
      </trkpt>
      <trkpt lat="45.48362" lon="-0.39524">
        <ele>48</ele>
        <time>2022-05-09T15:37:59+02:00</time>
      </trkpt>
      <trkpt lat="45.4834" lon="-0.39532">
        <ele>49</ele>
        <time>2022-05-09T15:38:18+02:00</time>
      </trkpt>
      <trkpt lat="45.48318" lon="-0.3954">
        <ele>49</ele>
        <time>2022-05-09T15:38:35+02:00</time>
      </trkpt>
      <trkpt lat="45.48295" lon="-0.39548">
        <ele>50</ele>
        <time>2022-05-09T15:38:52+02:00</time>
      </trkpt>
      <trkpt lat="45.48274" lon="-0.39559">
        <ele>51</ele>
        <time>2022-05-09T15:39:10+02:00</time>
      </trkpt>
      <trkpt lat="45.48254" lon="-0.39574">
        <ele>52</ele>
        <time>2022-05-09T15:39:26+02:00</time>
      </trkpt>
      <trkpt lat="45.48233" lon="-0.39587">
        <ele>52</ele>
        <time>2022-05-09T15:39:45+02:00</time>
      </trkpt>
      <trkpt lat="45.48213" lon="-0.39602">
        <ele>52</ele>
        <time>2022-05-09T15:40:04+02:00</time>
      </trkpt>
      <trkpt lat="45.48191" lon="-0.39615">
        <ele>52</ele>
        <time>2022-05-09T15:40:22+02:00</time>
      </trkpt>
      <trkpt lat="45.48171" lon="-0.39629">
        <ele>51</ele>
        <time>2022-05-09T15:40:39+02:00</time>
      </trkpt>
      <trkpt lat="45.48149" lon="-0.39641">
        <ele>52</ele>
        <time>2022-05-09T15:40:57+02:00</time>
      </trkpt>
      <trkpt lat="45.48128" lon="-0.39656">
        <ele>52</ele>
        <time>2022-05-09T15:41:15+02:00</time>
      </trkpt>
      <trkpt lat="45.48106" lon="-0.39667">
        <ele>53</ele>
        <time>2022-05-09T15:41:32+02:00</time>
      </trkpt>
      <trkpt lat="45.48084" lon="-0.39676">
        <ele>54</ele>
        <time>2022-05-09T15:41:49+02:00</time>
      </trkpt>
      <trkpt lat="45.48062" lon="-0.39686">
        <ele>53</ele>
        <time>2022-05-09T15:42:06+02:00</time>
      </trkpt>
      <trkpt lat="45.4804" lon="-0.39695">
        <ele>52</ele>
        <time>2022-05-09T15:42:25+02:00</time>
      </trkpt>
      <trkpt lat="45.48017" lon="-0.39706">
        <ele>52</ele>
        <time>2022-05-09T15:42:44+02:00</time>
      </trkpt>
      <trkpt lat="45.47996" lon="-0.39717">
        <ele>52</ele>
        <time>2022-05-09T15:43:03+02:00</time>
      </trkpt>
      <trkpt lat="45.47974" lon="-0.39731">
        <ele>52</ele>
        <time>2022-05-09T15:43:22+02:00</time>
      </trkpt>
      <trkpt lat="45.47956" lon="-0.3975">
        <ele>52</ele>
        <time>2022-05-09T15:43:40+02:00</time>
      </trkpt>
      <trkpt lat="45.47936" lon="-0.39765">
        <ele>52</ele>
        <time>2022-05-09T15:43:58+02:00</time>
      </trkpt>
      <trkpt lat="45.47916" lon="-0.39784">
        <ele>52</ele>
        <time>2022-05-09T15:44:17+02:00</time>
      </trkpt>
      <trkpt lat="45.47897" lon="-0.39802">
        <ele>52</ele>
        <time>2022-05-09T15:44:35+02:00</time>
      </trkpt>
      <trkpt lat="45.47879" lon="-0.39821">
        <ele>53</ele>
        <time>2022-05-09T15:44:53+02:00</time>
      </trkpt>
      <trkpt lat="45.47859" lon="-0.39841">
        <ele>54</ele>
        <time>2022-05-09T15:45:11+02:00</time>
      </trkpt>
      <trkpt lat="45.47841" lon="-0.39859">
        <ele>55</ele>
        <time>2022-05-09T15:45:29+02:00</time>
      </trkpt>
      <trkpt lat="45.47822" lon="-0.3988">
        <ele>55</ele>
        <time>2022-05-09T15:45:48+02:00</time>
      </trkpt>
      <trkpt lat="45.47804" lon="-0.399">
        <ele>55</ele>
        <time>2022-05-09T15:46:06+02:00</time>
      </trkpt>
      <trkpt lat="45.47786" lon="-0.3992">
        <ele>56</ele>
        <time>2022-05-09T15:46:24+02:00</time>
      </trkpt>
      <trkpt lat="45.47767" lon="-0.39937">
        <ele>56</ele>
        <time>2022-05-09T15:46:41+02:00</time>
      </trkpt>
      <trkpt lat="45.47748" lon="-0.39954">
        <ele>56</ele>
        <time>2022-05-09T15:46:58+02:00</time>
      </trkpt>
      <trkpt lat="45.4773" lon="-0.39975">
        <ele>58</ele>
        <time>2022-05-09T15:47:17+02:00</time>
      </trkpt>
      <trkpt lat="45.47712" lon="-0.39992">
        <ele>59</ele>
        <time>2022-05-09T15:47:37+02:00</time>
      </trkpt>
      <trkpt lat="45.47693" lon="-0.40013">
        <ele>60</ele>
        <time>2022-05-09T15:47:59+02:00</time>
      </trkpt>
      <trkpt lat="45.47672" lon="-0.40028">
        <ele>61</ele>
        <time>2022-05-09T15:48:18+02:00</time>
      </trkpt>
      <trkpt lat="45.47649" lon="-0.40039">
        <ele>61</ele>
        <time>2022-05-09T15:48:36+02:00</time>
      </trkpt>
      <trkpt lat="45.47626" lon="-0.40045">
        <ele>62</ele>
        <time>2022-05-09T15:48:57+02:00</time>
      </trkpt>
      <trkpt lat="45.47603" lon="-0.40051">
        <ele>62</ele>
        <time>2022-05-09T15:49:12+02:00</time>
      </trkpt>
      <trkpt lat="45.47581" lon="-0.40053">
        <ele>63</ele>
        <time>2022-05-09T15:49:34+02:00</time>
      </trkpt>
      <trkpt lat="45.47557" lon="-0.40051">
        <ele>63</ele>
        <time>2022-05-09T15:49:52+02:00</time>
      </trkpt>
      <trkpt lat="45.47538" lon="-0.40072">
        <ele>65</ele>
        <time>2022-05-09T15:50:15+02:00</time>
      </trkpt>
      <trkpt lat="45.47519" lon="-0.40091">
        <ele>66</ele>
        <time>2022-05-09T15:50:33+02:00</time>
      </trkpt>
      <trkpt lat="45.475" lon="-0.40109">
        <ele>66</ele>
        <time>2022-05-09T15:50:52+02:00</time>
      </trkpt>
      <trkpt lat="45.4748" lon="-0.40129">
        <ele>67</ele>
        <time>2022-05-09T15:51:10+02:00</time>
      </trkpt>
      <trkpt lat="45.47462" lon="-0.4015">
        <ele>68</ele>
        <time>2022-05-09T15:51:30+02:00</time>
      </trkpt>
      <trkpt lat="45.47451" lon="-0.4018">
        <ele>68</ele>
        <time>2022-05-09T15:51:48+02:00</time>
      </trkpt>
      <trkpt lat="45.47436" lon="-0.40205">
        <ele>69</ele>
        <time>2022-05-09T15:52:07+02:00</time>
      </trkpt>
      <trkpt lat="45.47421" lon="-0.40232">
        <ele>70</ele>
        <time>2022-05-09T15:52:25+02:00</time>
      </trkpt>
      <trkpt lat="45.47404" lon="-0.40254">
        <ele>70</ele>
        <time>2022-05-09T15:53:20+02:00</time>
      </trkpt>
      <trkpt lat="45.47382" lon="-0.40244">
        <ele>70</ele>
        <time>2022-05-09T15:53:51+02:00</time>
      </trkpt>
      <trkpt lat="45.47364" lon="-0.40223">
        <ele>71</ele>
        <time>2022-05-09T15:54:10+02:00</time>
      </trkpt>
      <trkpt lat="45.47345" lon="-0.40202">
        <ele>71</ele>
        <time>2022-05-09T15:54:30+02:00</time>
      </trkpt>
      <trkpt lat="45.47328" lon="-0.40179">
        <ele>71</ele>
        <time>2022-05-09T15:54:49+02:00</time>
      </trkpt>
      <trkpt lat="45.47311" lon="-0.40157">
        <ele>71</ele>
        <time>2022-05-09T15:55:09+02:00</time>
      </trkpt>
      <trkpt lat="45.47292" lon="-0.40141">
        <ele>70</ele>
        <time>2022-05-09T15:55:29+02:00</time>
      </trkpt>
      <trkpt lat="45.47275" lon="-0.40162">
        <ele>71</ele>
        <time>2022-05-09T15:55:48+02:00</time>
      </trkpt>
      <trkpt lat="45.47252" lon="-0.40161">
        <ele>71</ele>
        <time>2022-05-09T15:56:14+02:00</time>
      </trkpt>
      <trkpt lat="45.47237" lon="-0.40136">
        <ele>71</ele>
        <time>2022-05-09T15:56:32+02:00</time>
      </trkpt>
      <trkpt lat="45.4722" lon="-0.40112">
        <ele>71</ele>
        <time>2022-05-09T15:56:54+02:00</time>
      </trkpt>
      <trkpt lat="45.47204" lon="-0.4009">
        <ele>71</ele>
        <time>2022-05-09T15:57:11+02:00</time>
      </trkpt>
      <trkpt lat="45.47188" lon="-0.40068">
        <ele>71</ele>
        <time>2022-05-09T15:57:30+02:00</time>
      </trkpt>
      <trkpt lat="45.47172" lon="-0.40044">
        <ele>70</ele>
        <time>2022-05-09T15:57:50+02:00</time>
      </trkpt>
      <trkpt lat="45.47155" lon="-0.40022">
        <ele>70</ele>
        <time>2022-05-09T15:58:10+02:00</time>
      </trkpt>
      <trkpt lat="45.47135" lon="-0.40005">
        <ele>70</ele>
        <time>2022-05-09T15:58:30+02:00</time>
      </trkpt>
      <trkpt lat="45.47116" lon="-0.39986">
        <ele>71</ele>
        <time>2022-05-09T15:58:48+02:00</time>
      </trkpt>
      <trkpt lat="45.47095" lon="-0.39971">
        <ele>72</ele>
        <time>2022-05-09T15:59:07+02:00</time>
      </trkpt>
      <trkpt lat="45.47073" lon="-0.39965">
        <ele>72</ele>
        <time>2022-05-09T15:59:26+02:00</time>
      </trkpt>
      <trkpt lat="45.47051" lon="-0.39952">
        <ele>73</ele>
        <time>2022-05-09T15:59:45+02:00</time>
      </trkpt>
      <trkpt lat="45.4703" lon="-0.39964">
        <ele>73</ele>
        <time>2022-05-09T16:00:08+02:00</time>
      </trkpt>
      <trkpt lat="45.47022" lon="-0.39995">
        <ele>73</ele>
        <time>2022-05-09T16:00:26+02:00</time>
      </trkpt>
      <trkpt lat="45.4701" lon="-0.40024">
        <ele>72</ele>
        <time>2022-05-09T16:00:45+02:00</time>
      </trkpt>
      <trkpt lat="45.46999" lon="-0.40051">
        <ele>72</ele>
        <time>2022-05-09T16:01:04+02:00</time>
      </trkpt>
      <trkpt lat="45.4699" lon="-0.40081">
        <ele>70</ele>
        <time>2022-05-09T16:01:23+02:00</time>
      </trkpt>
      <trkpt lat="45.46986" lon="-0.40113">
        <ele>67</ele>
        <time>2022-05-09T16:02:38+02:00</time>
      </trkpt>
      <trkpt lat="45.47006" lon="-0.40128">
        <ele>67</ele>
        <time>2022-05-09T16:03:29+02:00</time>
      </trkpt>
      <trkpt lat="45.47023" lon="-0.4015">
        <ele>66</ele>
        <time>2022-05-09T16:04:37+02:00</time>
      </trkpt>
      <trkpt lat="45.47042" lon="-0.40167">
        <ele>65</ele>
        <time>2022-05-09T16:05:50+02:00</time>
      </trkpt>
      <trkpt lat="45.47061" lon="-0.40184">
        <ele>65</ele>
        <time>2022-05-09T16:06:21+02:00</time>
      </trkpt>
      <trkpt lat="45.4708" lon="-0.40203">
        <ele>63</ele>
        <time>2022-05-09T16:06:52+02:00</time>
      </trkpt>
      <trkpt lat="45.471" lon="-0.40216">
        <ele>64</ele>
        <time>2022-05-09T16:07:37+02:00</time>
      </trkpt>
      <trkpt lat="45.47118" lon="-0.40237">
        <ele>63</ele>
        <time>2022-05-09T16:08:18+02:00</time>
      </trkpt>
      <trkpt lat="45.47137" lon="-0.40256">
        <ele>63</ele>
        <time>2022-05-09T16:08:51+02:00</time>
      </trkpt>
      <trkpt lat="45.47158" lon="-0.40268">
        <ele>64</ele>
        <time>2022-05-09T16:09:28+02:00</time>
      </trkpt>
      <trkpt lat="45.47181" lon="-0.40264">
        <ele>66</ele>
        <time>2022-05-09T16:10:34+02:00</time>
      </trkpt>
      <trkpt lat="45.47196" lon="-0.40288">
        <ele>64</ele>
        <time>2022-05-09T16:12:22+02:00</time>
      </trkpt>
      <trkpt lat="45.47217" lon="-0.40303">
        <ele>64</ele>
        <time>2022-05-09T16:15:11+02:00</time>
      </trkpt>
      <trkpt lat="45.47233" lon="-0.40325">
        <ele>64</ele>
        <time>2022-05-09T16:16:02+02:00</time>
      </trkpt>
      <trkpt lat="45.47251" lon="-0.40346">
        <ele>63</ele>
        <time>2022-05-09T16:16:31+02:00</time>
      </trkpt>
      <trkpt lat="45.47273" lon="-0.40354">
        <ele>63</ele>
        <time>2022-05-09T16:17:11+02:00</time>
      </trkpt>
      <trkpt lat="45.47293" lon="-0.40368">
        <ele>62</ele>
        <time>2022-05-09T16:18:04+02:00</time>
      </trkpt>
      <trkpt lat="45.47311" lon="-0.40389">
        <ele>61</ele>
        <time>2022-05-09T16:18:50+02:00</time>
      </trkpt>
      <trkpt lat="45.47332" lon="-0.40402">
        <ele>60</ele>
        <time>2022-05-09T16:19:20+02:00</time>
      </trkpt>
      <trkpt lat="45.47354" lon="-0.40401">
        <ele>62</ele>
        <time>2022-05-09T16:19:58+02:00</time>
      </trkpt>
      <trkpt lat="45.47374" lon="-0.40418">
        <ele>61</ele>
        <time>2022-05-09T16:20:21+02:00</time>
      </trkpt>
      <trkpt lat="45.47393" lon="-0.40435">
        <ele>60</ele>
        <time>2022-05-09T16:20:46+02:00</time>
      </trkpt>
      <trkpt lat="45.47411" lon="-0.40455">
        <ele>59</ele>
        <time>2022-05-09T16:21:09+02:00</time>
      </trkpt>
      <trkpt lat="45.47432" lon="-0.40472">
        <ele>59</ele>
        <time>2022-05-09T16:21:31+02:00</time>
      </trkpt>
      <trkpt lat="45.47452" lon="-0.4049">
        <ele>58</ele>
        <time>2022-05-09T16:21:52+02:00</time>
      </trkpt>
      <trkpt lat="45.47472" lon="-0.40505">
        <ele>58</ele>
        <time>2022-05-09T16:23:12+02:00</time>
      </trkpt>
      <trkpt lat="45.47493" lon="-0.40516">
        <ele>59</ele>
        <time>2022-05-09T16:24:17+02:00</time>
      </trkpt>
      <trkpt lat="45.47514" lon="-0.40529">
        <ele>58</ele>
        <time>2022-05-09T16:24:49+02:00</time>
      </trkpt>
      <trkpt lat="45.47535" lon="-0.40541">
        <ele>57</ele>
        <time>2022-05-09T16:25:12+02:00</time>
      </trkpt>
      <trkpt lat="45.47557" lon="-0.40551">
        <ele>57</ele>
        <time>2022-05-09T16:25:36+02:00</time>
      </trkpt>
      <trkpt lat="45.47577" lon="-0.40566">
        <ele>56</ele>
        <time>2022-05-09T16:26:01+02:00</time>
      </trkpt>
      <trkpt lat="45.47597" lon="-0.4058">
        <ele>55</ele>
        <time>2022-05-09T16:26:27+02:00</time>
      </trkpt>
      <trkpt lat="45.4762" lon="-0.40587">
        <ele>55</ele>
        <time>2022-05-09T16:26:47+02:00</time>
      </trkpt>
      <trkpt lat="45.4764" lon="-0.40601">
        <ele>54</ele>
        <time>2022-05-09T16:27:11+02:00</time>
      </trkpt>
      <trkpt lat="45.47662" lon="-0.40614">
        <ele>53</ele>
        <time>2022-05-09T16:27:37+02:00</time>
      </trkpt>
      <trkpt lat="45.47683" lon="-0.40628">
        <ele>51</ele>
        <time>2022-05-09T16:28:02+02:00</time>
      </trkpt>
      <trkpt lat="45.47704" lon="-0.40642">
        <ele>50</ele>
        <time>2022-05-09T16:28:27+02:00</time>
      </trkpt>
      <trkpt lat="45.47724" lon="-0.40657">
        <ele>49</ele>
        <time>2022-05-09T16:28:54+02:00</time>
      </trkpt>
      <trkpt lat="45.47739" lon="-0.40632">
        <ele>51</ele>
        <time>2022-05-09T16:29:15+02:00</time>
      </trkpt>
      <trkpt lat="45.47752" lon="-0.40605">
        <ele>53</ele>
        <time>2022-05-09T16:30:08+02:00</time>
      </trkpt>
      <trkpt lat="45.47766" lon="-0.40579">
        <ele>55</ele>
        <time>2022-05-09T16:30:27+02:00</time>
      </trkpt>
      <trkpt lat="45.4778" lon="-0.40553">
        <ele>56</ele>
        <time>2022-05-09T16:30:54+02:00</time>
      </trkpt>
      <trkpt lat="45.47791" lon="-0.40525">
        <ele>57</ele>
        <time>2022-05-09T16:31:38+02:00</time>
      </trkpt>
      <trkpt lat="45.47799" lon="-0.40495">
        <ele>58</ele>
        <time>2022-05-09T16:32:02+02:00</time>
      </trkpt>
      <trkpt lat="45.47809" lon="-0.40466">
        <ele>60</ele>
        <time>2022-05-09T16:32:24+02:00</time>
      </trkpt>
      <trkpt lat="45.47819" lon="-0.40436">
        <ele>61</ele>
        <time>2022-05-09T16:32:46+02:00</time>
      </trkpt>
      <trkpt lat="45.47829" lon="-0.40407">
        <ele>62</ele>
        <time>2022-05-09T16:33:09+02:00</time>
      </trkpt>
      <trkpt lat="45.47843" lon="-0.40379">
        <ele>62</ele>
        <time>2022-05-09T16:33:29+02:00</time>
      </trkpt>
      <trkpt lat="45.47844" lon="-0.40346">
        <ele>63</ele>
        <time>2022-05-09T16:34:19+02:00</time>
      </trkpt>
    </trkseg>
  </trk>
</gpx>